sensor_id;sensor_type;location;lat;lon;timestamp;pressure;altitude;pressure_sealevel;temperature;humidity
76124;BME280;65173;48.066;20.976;2024-03-23T00:53:55;100101.75;;;8.12;94.05
76124;BME280;65173;48.066;20.976;2024-03-23T00:56:57;100099.34;;;8.01;94.47
76124;BME280;65173;48.066;20.976;2024-03-23T00:59:58;100094.72;;;7.93;95.56
76124;BME280;65173;48.066;20.976;2024-03-23T01:03:00;100085.28;;;8.01;95.44
76124;BME280;65173;48.066;20.976;2024-03-23T01:06:02;100081.06;;;8.00;95.13
76124;BME280;65173;48.066;20.976;2024-03-23T01:09:05;100088.81;;;7.96;96.74
76124;BME280;65173;48.066;20.976;2024-03-23T01:12:07;100085.88;;;7.98;95.73
76124;BME280;65173;48.066;20.976;2024-03-23T01:15:08;100083.41;;;8.01;95.71
76124;BME280;65173;48.066;20.976;2024-03-23T01:18:10;100078.59;;;8.04;94.23
76124;BME280;65173;48.066;20.976;2024-03-23T01:21:11;100087.44;;;7.99;96.36
76124;BME280;65173;48.066;20.976;2024-03-23T01:24:13;100083.22;;;7.98;95.66
76124;BME280;65173;48.066;20.976;2024-03-23T01:27:14;100088.88;;;7.83;96.08
76124;BME280;65173;48.066;20.976;2024-03-23T01:30:16;100084.78;;;7.63;97.21
76124;BME280;65173;48.066;20.976;2024-03-23T01:33:19;100084.78;;;7.63;99.54
76124;BME280;65173;48.066;20.976;2024-03-23T01:36:20;100081.22;;;7.81;97.24
76124;BME280;65173;48.066;20.976;2024-03-23T01:39:22;100083.84;;;7.81;97.89
76124;BME280;65173;48.066;20.976;2024-03-23T01:42:23;100075.97;;;7.90;96.90
76124;BME280;65173;48.066;20.976;2024-03-23T01:45:25;100073.44;;;8.07;95.82
76124;BME280;65173;48.066;20.976;2024-03-23T01:48:26;100075.00;;;8.08;97.22
76124;BME280;65173;48.066;20.976;2024-03-23T01:51:28;100088.41;;;8.03;95.97
76124;BME280;65173;48.066;20.976;2024-03-23T01:54:30;100084.44;;;8.14;94.02
76124;BME280;65173;48.066;20.976;2024-03-23T01:57:32;100079.09;;;8.06;94.01
76124;BME280;65173;48.066;20.976;2024-03-23T02:00:34;100078.59;;;8.04;95.09
76124;BME280;65173;48.066;20.976;2024-03-23T02:03:35;100077.84;;;8.12;95.45
76124;BME280;65173;48.066;20.976;2024-03-23T02:06:37;100075.63;;;8.05;96.73
76124;BME280;65173;48.066;20.976;2024-03-23T02:09:38;100068.28;;;7.88;98.08
76124;BME280;65173;48.066;20.976;2024-03-23T02:12:40;100060.19;;;7.85;98.52
76124;BME280;65173;48.066;20.976;2024-03-23T02:15:41;100057.81;;;7.83;97.95
76124;BME280;65173;48.066;20.976;2024-03-23T02:18:43;100054.69;;;7.81;99.43
76124;BME280;65173;48.066;20.976;2024-03-23T02:21:44;100063.63;;;7.85;99.92
76124;BME280;65173;48.066;20.976;2024-03-23T02:24:48;100064.09;;;7.87;100.00
76124;BME280;65173;48.066;20.976;2024-03-23T02:27:49;100071.00;;;7.75;100.00
76124;BME280;65173;48.066;20.976;2024-03-23T02:30:51;100063.34;;;7.73;100.00
76124;BME280;65173;48.066;20.976;2024-03-23T02:33:53;100065.81;;;7.70;100.00
76124;BME280;65173;48.066;20.976;2024-03-23T02:36:54;100071.34;;;7.46;100.00
76124;BME280;65173;48.066;20.976;2024-03-23T02:39:56;100066.75;;;7.51;100.00
76124;BME280;65173;48.066;20.976;2024-03-23T02:42:57;100061.91;;;7.53;100.00
76124;BME280;65173;48.066;20.976;2024-03-23T02:45:59;100066.41;;;7.53;100.00
76124;BME280;65173;48.066;20.976;2024-03-23T02:49:00;100048.84;;;7.57;100.00
76124;BME280;65173;48.066;20.976;2024-03-23T02:52:02;100052.94;;;7.63;100.00
76124;BME280;65173;48.066;20.976;2024-03-23T02:55:04;100054.38;;;7.33;100.00
76124;BME280;65173;48.066;20.976;2024-03-23T02:58:06;100046.59;;;7.50;100.00
76124;BME280;65173;48.066;20.976;2024-03-23T03:01:07;100046.50;;;7.42;100.00
76124;BME280;65173;48.066;20.976;2024-03-23T03:04:09;100038.16;;;7.35;100.00
76124;BME280;65173;48.066;20.976;2024-03-23T03:07:10;100028.81;;;7.51;100.00
76124;BME280;65173;48.066;20.976;2024-03-23T03:10:12;100026.47;;;7.49;100.00
76124;BME280;65173;48.066;20.976;2024-03-23T03:13:13;100026.97;;;7.51;100.00
76124;BME280;65173;48.066;20.976;2024-03-23T03:16:15;100019.69;;;7.43;100.00
76124;BME280;65173;48.066;20.976;2024-03-23T03:19:16;100017.94;;;7.39;100.00
76124;BME280;65173;48.066;20.976;2024-03-23T03:22:17;100030.34;;;7.16;100.00
76124;BME280;65173;48.066;20.976;2024-03-23T03:25:19;100035.84;;;7.33;100.00
76124;BME280;65173;48.066;20.976;2024-03-23T03:28:20;100029.06;;;7.27;100.00
76124;BME280;65173;48.066;20.976;2024-03-23T03:31:22;100015.69;;;7.32;100.00
76124;BME280;65173;48.066;20.976;2024-03-23T03:34:23;100009.09;;;7.43;100.00
76124;BME280;65173;48.066;20.976;2024-03-23T03:37:25;100016.59;;;7.14;100.00
76124;BME280;65173;48.066;20.976;2024-03-23T03:40:26;100020.22;;;7.18;100.00
76124;BME280;65173;48.066;20.976;2024-03-23T03:43:28;100003.63;;;7.26;100.00
76124;BME280;65173;48.066;20.976;2024-03-23T03:46:29;100005.28;;;7.22;100.00
76124;BME280;65173;48.066;20.976;2024-03-23T03:49:31;100009.41;;;7.28;100.00
76124;BME280;65173;48.066;20.976;2024-03-23T03:52:32;100019.34;;;7.09;100.00
76124;BME280;65173;48.066;20.976;2024-03-23T03:55:34;100014.53;;;6.83;100.00
76124;BME280;65173;48.066;20.976;2024-03-23T03:58:35;100004.03;;;7.06;100.00
76124;BME280;65173;48.066;20.976;2024-03-23T04:01:37;99996.34;;;7.18;100.00
76124;BME280;65173;48.066;20.976;2024-03-23T04:04:38;99998.03;;;7.27;100.00
76124;BME280;65173;48.066;20.976;2024-03-23T04:07:40;100008.03;;;7.30;100.00
76124;BME280;65173;48.066;20.976;2024-03-23T04:10:41;100001.56;;;7.23;100.00
76124;BME280;65173;48.066;20.976;2024-03-23T04:13:43;100011.19;;;7.05;100.00
76124;BME280;65173;48.066;20.976;2024-03-23T04:16:44;100006.41;;;6.93;100.00
76124;BME280;65173;48.066;20.976;2024-03-23T04:19:46;100004.72;;;7.11;100.00
76124;BME280;65173;48.066;20.976;2024-03-23T04:22:48;99995.50;;;7.09;100.00
76124;BME280;65173;48.066;20.976;2024-03-23T04:25:49;99993.16;;;7.07;100.00
76124;BME280;65173;48.066;20.976;2024-03-23T04:28:52;100000.88;;;7.17;100.00
76124;BME280;65173;48.066;20.976;2024-03-23T04:31:53;99992.66;;;7.05;100.00
76124;BME280;65173;48.066;20.976;2024-03-23T04:34:54;99988.75;;;6.89;100.00
76124;BME280;65173;48.066;20.976;2024-03-23T04:37:56;99991.69;;;6.87;100.00
76124;BME280;65173;48.066;20.976;2024-03-23T04:40:59;99987.16;;;6.88;100.00
76124;BME280;65173;48.066;20.976;2024-03-23T04:44:01;99988.13;;;7.06;100.00
76124;BME280;65173;48.066;20.976;2024-03-23T04:47:03;99996.88;;;6.92;100.00
76124;BME280;65173;48.066;20.976;2024-03-23T04:50:05;99988.22;;;7.01;100.00
76124;BME280;65173;48.066;20.976;2024-03-23T04:53:07;99978.94;;;6.89;100.00
76124;BME280;65173;48.066;20.976;2024-03-23T04:56:08;99973.13;;;7.01;100.00
76124;BME280;65173;48.066;20.976;2024-03-23T04:59:11;99970.47;;;7.15;100.00
76124;BME280;65173;48.066;20.976;2024-03-23T05:02:13;99977.44;;;7.11;100.00
76124;BME280;65173;48.066;20.976;2024-03-23T05:05:16;99982.53;;;7.21;100.00
76124;BME280;65173;48.066;20.976;2024-03-23T05:08:17;99993.03;;;7.26;100.00
76124;BME280;65173;48.066;20.976;2024-03-23T05:11:19;99988.53;;;7.13;100.00
76124;BME280;65173;48.066;20.976;2024-03-23T05:14:21;99990.69;;;7.11;100.00
76124;BME280;65173;48.066;20.976;2024-03-23T05:17:23;99991.38;;;7.03;100.00
76124;BME280;65173;48.066;20.976;2024-03-23T05:20:24;99980.38;;;7.09;100.00
76124;BME280;65173;48.066;20.976;2024-03-23T05:23:26;99978.66;;;7.41;100.00
76124;BME280;65173;48.066;20.976;2024-03-23T05:26:29;99985.91;;;7.49;100.00
76124;BME280;65173;48.066;20.976;2024-03-23T05:29:30;99980.50;;;7.40;100.00
76124;BME280;65173;48.066;20.976;2024-03-23T05:32:32;99979.72;;;7.40;100.00
76124;BME280;65173;48.066;20.976;2024-03-23T05:35:33;99976.38;;;7.48;100.00
76124;BME280;65173;48.066;20.976;2024-03-23T05:38:34;99961.91;;;7.54;100.00
76124;BME280;65173;48.066;20.976;2024-03-23T05:41:36;99966.84;;;7.47;100.00
76124;BME280;65173;48.066;20.976;2024-03-23T05:44:37;99962.16;;;7.44;100.00
76124;BME280;65173;48.066;20.976;2024-03-23T05:47:39;99972.41;;;7.59;100.00
76124;BME280;65173;48.066;20.976;2024-03-23T05:50:41;99959.63;;;7.61;100.00
76124;BME280;65173;48.066;20.976;2024-03-23T05:53:42;99964.28;;;7.78;100.00
76124;BME280;65173;48.066;20.976;2024-03-23T05:56:44;99961.44;;;7.96;100.00
76124;BME280;65173;48.066;20.976;2024-03-23T05:59:45;99957.09;;;8.23;100.00
76124;BME280;65173;48.066;20.976;2024-03-23T06:02:46;99960.66;;;8.18;100.00
76124;BME280;65173;48.066;20.976;2024-03-23T06:05:48;99965.78;;;8.15;100.00
76124;BME280;65173;48.066;20.976;2024-03-23T06:08:49;99955.22;;;8.23;100.00
76124;BME280;65173;48.066;20.976;2024-03-23T06:11:51;99950.72;;;8.01;100.00
76124;BME280;65173;48.066;20.976;2024-03-23T06:14:52;99957.28;;;8.04;100.00
76124;BME280;65173;48.066;20.976;2024-03-23T06:17:54;99944.22;;;8.16;100.00
76124;BME280;65173;48.066;20.976;2024-03-23T06:20:56;99946.88;;;8.16;100.00
76124;BME280;65173;48.066;20.976;2024-03-23T06:23:57;99941.16;;;8.23;100.00
76124;BME280;65173;48.066;20.976;2024-03-23T06:26:59;99934.31;;;8.30;100.00
76124;BME280;65173;48.066;20.976;2024-03-23T06:30:00;99934.06;;;8.41;100.00
76124;BME280;65173;48.066;20.976;2024-03-23T06:33:02;99932.47;;;8.79;100.00
76124;BME280;65173;48.066;20.976;2024-03-23T06:36:05;99933.19;;;9.28;100.00
76124;BME280;65173;48.066;20.976;2024-03-23T06:39:06;99931.63;;;9.27;100.00
76124;BME280;65173;48.066;20.976;2024-03-23T06:42:10;99938.28;;;9.93;97.31
76124;BME280;65173;48.066;20.976;2024-03-23T06:45:11;99933.72;;;10.11;95.11
76124;BME280;65173;48.066;20.976;2024-03-23T06:48:13;99941.44;;;10.80;91.42
76124;BME280;65173;48.066;20.976;2024-03-23T06:51:14;99939.66;;;11.13;89.48
76124;BME280;65173;48.066;20.976;2024-03-23T06:54:17;99947.88;;;11.08;88.95
76124;BME280;65173;48.066;20.976;2024-03-23T06:57:18;99958.72;;;11.03;90.34
76124;BME280;65173;48.066;20.976;2024-03-23T07:00:20;99941.06;;;11.40;89.83
76124;BME280;65173;48.066;20.976;2024-03-23T07:03:21;99928.31;;;12.12;83.85
76124;BME280;65173;48.066;20.976;2024-03-23T07:06:23;99924.56;;;12.74;78.67
76124;BME280;65173;48.066;20.976;2024-03-23T07:09:24;99926.56;;;12.28;78.36
76124;BME280;65173;48.066;20.976;2024-03-23T07:12:28;99925.97;;;11.98;79.76
76124;BME280;65173;48.066;20.976;2024-03-23T07:15:29;99919.94;;;12.01;80.58
76124;BME280;65173;48.066;20.976;2024-03-23T07:18:31;99920.63;;;12.23;80.85
76124;BME280;65173;48.066;20.976;2024-03-23T07:21:32;99914.25;;;11.91;78.47
76124;BME280;65173;48.066;20.976;2024-03-23T07:24:34;99909.19;;;11.77;81.83
76124;BME280;65173;48.066;20.976;2024-03-23T07:27:35;99911.22;;;11.80;83.03
76124;BME280;65173;48.066;20.976;2024-03-23T07:30:36;99914.13;;;11.66;83.15
76124;BME280;65173;48.066;20.976;2024-03-23T07:33:46;99903.88;;;11.89;82.41
76124;BME280;65173;48.066;20.976;2024-03-23T07:36:48;99896.59;;;12.10;81.17
76124;BME280;65173;48.066;20.976;2024-03-23T07:39:50;99893.66;;;12.03;81.21
76124;BME280;65173;48.066;20.976;2024-03-23T07:42:52;99891.66;;;12.00;83.88
76124;BME280;65173;48.066;20.976;2024-03-23T07:45:54;99891.28;;;12.35;82.05
76124;BME280;65173;48.066;20.976;2024-03-23T07:48:55;99893.72;;;12.40;82.78
76124;BME280;65173;48.066;20.976;2024-03-23T07:51:57;99894.84;;;12.51;82.45
76124;BME280;65173;48.066;20.976;2024-03-23T07:54:58;99891.16;;;12.31;82.16
76124;BME280;65173;48.066;20.976;2024-03-23T07:57:59;99881.59;;;12.30;82.49
76124;BME280;65173;48.066;20.976;2024-03-23T08:01:11;99885.38;;;12.29;83.11
76124;BME280;65173;48.066;20.976;2024-03-23T08:04:12;99884.03;;;12.35;81.01
76124;BME280;65173;48.066;20.976;2024-03-23T08:07:14;99873.22;;;12.32;82.38
76124;BME280;65173;48.066;20.976;2024-03-23T08:10:15;99874.66;;;12.41;81.23
76124;BME280;65173;48.066;20.976;2024-03-23T08:13:19;99870.44;;;12.16;78.84
76124;BME280;65173;48.066;20.976;2024-03-23T08:16:21;99867.31;;;12.26;82.01
76124;BME280;65173;48.066;20.976;2024-03-23T08:19:22;99869.53;;;12.24;80.75
76124;BME280;65173;48.066;20.976;2024-03-23T08:22:24;99868.44;;;12.37;80.44
76124;BME280;65173;48.066;20.976;2024-03-23T08:25:25;99862.84;;;12.67;81.17
76124;BME280;65173;48.066;20.976;2024-03-23T08:28:27;99864.06;;;12.81;82.06
76124;BME280;65173;48.066;20.976;2024-03-23T08:31:29;99866.28;;;12.79;78.23
76124;BME280;65173;48.066;20.976;2024-03-23T08:34:30;99856.72;;;13.46;75.63
76124;BME280;65173;48.066;20.976;2024-03-23T08:37:31;99860.06;;;14.03;75.53
76124;BME280;65173;48.066;20.976;2024-03-23T08:40:33;99861.03;;;13.79;76.82
76124;BME280;65173;48.066;20.976;2024-03-23T08:43:39;99863.19;;;13.89;74.25
76124;BME280;65173;48.066;20.976;2024-03-23T08:46:40;99856.28;;;14.70;71.25
76124;BME280;65173;48.066;20.976;2024-03-23T08:49:42;99849.38;;;15.04;69.97
76124;BME280;65173;48.066;20.976;2024-03-23T08:52:44;99845.06;;;15.00;71.68
76124;BME280;65173;48.066;20.976;2024-03-23T08:55:53;99845.81;;;14.30;74.32
76124;BME280;65173;48.066;20.976;2024-03-23T08:58:54;99845.19;;;14.21;73.48
76124;BME280;65173;48.066;20.976;2024-03-23T09:01:56;99836.09;;;13.63;75.64
76124;BME280;65173;48.066;20.976;2024-03-23T09:04:57;99824.53;;;13.59;78.28
76124;BME280;65173;48.066;20.976;2024-03-23T09:08:05;99815.88;;;13.49;80.06
76124;BME280;65173;48.066;20.976;2024-03-23T09:11:09;99810.97;;;13.51;80.92
76124;BME280;65173;48.066;20.976;2024-03-23T09:14:11;99803.09;;;13.43;80.05
76124;BME280;65173;48.066;20.976;2024-03-23T09:17:13;99800.59;;;13.50;81.15
76124;BME280;65173;48.066;20.976;2024-03-23T09:20:14;99796.88;;;14.02;79.62
76124;BME280;65173;48.066;20.976;2024-03-23T09:23:15;99794.97;;;14.18;77.40
76124;BME280;65173;48.066;20.976;2024-03-23T09:26:17;99783.00;;;14.47;77.69
76124;BME280;65173;48.066;20.976;2024-03-23T09:29:18;99783.59;;;14.56;75.17
76124;BME280;65173;48.066;20.976;2024-03-23T09:32:20;99777.38;;;15.10;78.75
76124;BME280;65173;48.066;20.976;2024-03-23T09:35:21;99777.31;;;15.48;73.66
76124;BME280;65173;48.066;20.976;2024-03-23T09:38:23;99777.16;;;15.83;72.47
76124;BME280;65173;48.066;20.976;2024-03-23T09:41:25;99772.72;;;16.21;71.45
76124;BME280;65173;48.066;20.976;2024-03-23T09:44:26;99769.88;;;15.61;70.07
76124;BME280;65173;48.066;20.976;2024-03-23T09:47:30;99766.69;;;15.78;68.93
76124;BME280;65173;48.066;20.976;2024-03-23T09:50:32;99771.28;;;15.55;70.73
76124;BME280;65173;48.066;20.976;2024-03-23T09:53:33;99775.38;;;15.91;70.37
76124;BME280;65173;48.066;20.976;2024-03-23T09:56:35;99759.84;;;16.33;67.86
76124;BME280;65173;48.066;20.976;2024-03-23T09:59:36;99758.25;;;16.03;67.41
76124;BME280;65173;48.066;20.976;2024-03-23T10:02:38;99757.97;;;15.58;68.78
76124;BME280;65173;48.066;20.976;2024-03-23T10:05:39;99745.31;;;15.85;66.46
76124;BME280;65173;48.066;20.976;2024-03-23T10:08:41;99757.56;;;16.36;67.05
76124;BME280;65173;48.066;20.976;2024-03-23T10:11:42;99753.19;;;17.17;64.56
76124;BME280;65173;48.066;20.976;2024-03-23T10:14:45;99748.00;;;16.64;63.50
76124;BME280;65173;48.066;20.976;2024-03-23T10:17:48;99735.75;;;15.88;65.56
76124;BME280;65173;48.066;20.976;2024-03-23T10:24:10;99738.41;;;16.11;68.08
76124;BME280;65173;48.066;20.976;2024-03-23T10:27:19;99728.03;;;16.09;66.61
76124;BME280;65173;48.066;20.976;2024-03-23T10:30:21;99721.97;;;15.89;68.47
76124;BME280;65173;48.066;20.976;2024-03-23T10:33:28;99723.13;;;15.66;67.81
76124;BME280;65173;48.066;20.976;2024-03-23T10:36:31;99713.69;;;15.75;67.78
76124;BME280;65173;48.066;20.976;2024-03-23T10:39:38;99715.50;;;15.94;66.84
76124;BME280;65173;48.066;20.976;2024-03-23T10:42:40;99699.13;;;15.76;67.55
76124;BME280;65173;48.066;20.976;2024-03-23T10:45:41;99699.13;;;15.76;67.29
76124;BME280;65173;48.066;20.976;2024-03-23T10:48:44;99700.72;;;16.07;70.12
76124;BME280;65173;48.066;20.976;2024-03-23T10:51:45;99690.91;;;15.92;66.27
76124;BME280;65173;48.066;20.976;2024-03-23T10:54:47;99673.66;;;15.93;66.54
76124;BME280;65173;48.066;20.976;2024-03-23T10:57:57;99674.44;;;15.97;67.28
76124;BME280;65173;48.066;20.976;2024-03-23T11:01:02;99664.19;;;16.36;67.03
76124;BME280;65173;48.066;20.976;2024-03-23T11:04:04;99650.28;;;16.27;65.39
76124;BME280;65173;48.066;20.976;2024-03-23T11:10:26;99631.09;;;16.32;66.34
76124;BME280;65173;48.066;20.976;2024-03-23T11:13:30;99627.03;;;16.45;64.92
76124;BME280;65173;48.066;20.976;2024-03-23T11:16:31;99624.66;;;16.74;64.14
76124;BME280;65173;48.066;20.976;2024-03-23T11:19:37;99617.84;;;16.83;62.61
76124;BME280;65173;48.066;20.976;2024-03-23T11:25:40;99618.94;;;17.23;62.66
76124;BME280;65173;48.066;20.976;2024-03-23T11:28:41;99618.00;;;17.56;59.02
76124;BME280;65173;48.066;20.976;2024-03-23T11:31:49;99611.56;;;17.64;59.36
76124;BME280;65173;48.066;20.976;2024-03-23T11:34:50;99605.81;;;17.65;57.03
76124;BME280;65173;48.066;20.976;2024-03-23T11:38:15;99588.88;;;17.68;58.54
76124;BME280;65173;48.066;20.976;2024-03-23T11:41:19;99594.13;;;17.51;60.42
76124;BME280;65173;48.066;20.976;2024-03-23T11:44:22;99578.28;;;17.42;56.38
76124;BME280;65173;48.066;20.976;2024-03-23T11:47:24;99588.25;;;17.34;54.86
76124;BME280;65173;48.066;20.976;2024-03-23T11:50:26;99576.59;;;17.20;54.29
76124;BME280;65173;48.066;20.976;2024-03-23T11:53:27;99565.13;;;17.30;53.27
76124;BME280;65173;48.066;20.976;2024-03-23T11:56:28;99577.88;;;17.33;54.09
76124;BME280;65173;48.066;20.976;2024-03-23T11:59:34;99567.47;;;17.31;54.49
76124;BME280;65173;48.066;20.976;2024-03-23T12:02:36;99562.09;;;17.39;56.28
76124;BME280;65173;48.066;20.976;2024-03-23T12:05:38;99555.47;;;17.25;54.46
76124;BME280;65173;48.066;20.976;2024-03-23T12:08:39;99547.91;;;17.45;55.58
76124;BME280;65173;48.066;20.976;2024-03-23T12:11:41;99545.16;;;17.34;53.01
76124;BME280;65173;48.066;20.976;2024-03-23T12:14:43;99543.66;;;17.37;53.12
76124;BME280;65173;48.066;20.976;2024-03-23T12:17:45;99530.53;;;17.35;54.68
76124;BME280;65173;48.066;20.976;2024-03-23T12:20:46;99521.25;;;17.26;54.38
76124;BME280;65173;48.066;20.976;2024-03-23T12:23:48;99520.84;;;17.24;54.59
76124;BME280;65173;48.066;20.976;2024-03-23T12:26:51;99508.91;;;17.21;53.99
76124;BME280;65173;48.066;20.976;2024-03-23T12:29:52;99502.34;;;17.22;54.19
76124;BME280;65173;48.066;20.976;2024-03-23T12:32:54;99500.41;;;17.16;55.35
76124;BME280;65173;48.066;20.976;2024-03-23T12:35:55;99500.13;;;17.31;55.69
76124;BME280;65173;48.066;20.976;2024-03-23T12:38:57;99490.03;;;17.21;55.21
76124;BME280;65173;48.066;20.976;2024-03-23T12:41:58;99502.00;;;17.24;55.64
76124;BME280;65173;48.066;20.976;2024-03-23T12:45:00;99488.13;;;17.18;53.50
76124;BME280;65173;48.066;20.976;2024-03-23T12:48:01;99483.91;;;17.24;54.32
76124;BME280;65173;48.066;20.976;2024-03-23T12:51:03;99478.97;;;17.33;54.20
76124;BME280;65173;48.066;20.976;2024-03-23T12:54:04;99476.25;;;17.30;52.33
76124;BME280;65173;48.066;20.976;2024-03-23T12:57:06;99474.66;;;17.18;52.00
76124;BME280;65173;48.066;20.976;2024-03-23T13:00:08;99468.16;;;17.26;51.80
76124;BME280;65173;48.066;20.976;2024-03-23T13:03:13;99462.06;;;17.37;54.42
76124;BME280;65173;48.066;20.976;2024-03-23T13:06:16;99457.38;;;17.26;53.13
76124;BME280;65173;48.066;20.976;2024-03-23T13:09:17;99463.03;;;17.07;54.62
76124;BME280;65173;48.066;20.976;2024-03-23T13:12:20;99442.28;;;17.11;54.44
76124;BME280;65173;48.066;20.976;2024-03-23T13:15:21;99437.66;;;17.08;53.90
76124;BME280;65173;48.066;20.976;2024-03-23T13:18:23;99425.38;;;17.14;51.98
76124;BME280;65173;48.066;20.976;2024-03-23T13:21:24;99417.25;;;17.07;51.85
76124;BME280;65173;48.066;20.976;2024-03-23T13:24:27;99418.81;;;17.08;53.81
76124;BME280;65173;48.066;20.976;2024-03-23T13:27:29;99402.69;;;17.15;54.20
76124;BME280;65173;48.066;20.976;2024-03-23T13:30:30;99412.66;;;17.08;53.09
76124;BME280;65173;48.066;20.976;2024-03-23T13:33:31;99403.06;;;17.10;54.60
76124;BME280;65173;48.066;20.976;2024-03-23T13:36:33;99404.94;;;17.06;51.04
76124;BME280;65173;48.066;20.976;2024-03-23T13:39:35;99393.06;;;17.11;52.81
76124;BME280;65173;48.066;20.976;2024-03-23T13:42:36;99385.72;;;17.04;52.12
76124;BME280;65173;48.066;20.976;2024-03-23T13:45:41;99389.94;;;16.98;52.12
76124;BME280;65173;48.066;20.976;2024-03-23T13:48:42;99376.16;;;17.14;53.17
76124;BME280;65173;48.066;20.976;2024-03-23T13:51:46;99366.47;;;17.02;51.62
76124;BME280;65173;48.066;20.976;2024-03-23T13:54:48;99363.81;;;17.09;51.38
76124;BME280;65173;48.066;20.976;2024-03-23T13:57:50;99362.66;;;17.10;51.49
76124;BME280;65173;48.066;20.976;2024-03-23T14:00:52;99369.53;;;16.97;52.14
76124;BME280;65173;48.066;20.976;2024-03-23T14:03:55;99370.25;;;16.87;53.27
76124;BME280;65173;48.066;20.976;2024-03-23T14:06:57;99356.44;;;16.92;53.21
76124;BME280;65173;48.066;20.976;2024-03-23T14:10:05;99351.78;;;16.89;54.20
76124;BME280;65173;48.066;20.976;2024-03-23T14:13:12;99351.03;;;16.92;53.44
76124;BME280;65173;48.066;20.976;2024-03-23T14:16:13;99341.41;;;16.87;52.85
76124;BME280;65173;48.066;20.976;2024-03-23T14:19:15;99336.41;;;16.86;53.44
76124;BME280;65173;48.066;20.976;2024-03-23T14:22:16;99341.00;;;16.85;52.72
76124;BME280;65173;48.066;20.976;2024-03-23T14:25:20;99339.50;;;16.91;54.20
76124;BME280;65173;48.066;20.976;2024-03-23T14:28:25;99334.50;;;16.90;54.04
76124;BME280;65173;48.066;20.976;2024-03-23T14:31:26;99332.94;;;16.85;54.67
76124;BME280;65173;48.066;20.976;2024-03-23T14:34:28;99328.31;;;16.86;54.87
76124;BME280;65173;48.066;20.976;2024-03-23T14:37:30;99327.56;;;16.85;54.43
76124;BME280;65173;48.066;20.976;2024-03-23T14:40:31;99319.88;;;16.84;53.37
76124;BME280;65173;48.066;20.976;2024-03-23T14:43:33;99316.41;;;16.80;54.28
76124;BME280;65173;48.066;20.976;2024-03-23T14:46:34;99321.78;;;16.83;55.39
76124;BME280;65173;48.066;20.976;2024-03-23T14:49:36;99317.19;;;16.91;55.79
76124;BME280;65173;48.066;20.976;2024-03-23T14:52:37;99316.03;;;16.88;55.66
76124;BME280;65173;48.066;20.976;2024-03-23T14:55:39;99314.13;;;16.92;54.44
76124;BME280;65173;48.066;20.976;2024-03-23T14:58:42;99302.56;;;16.81;55.72
76124;BME280;65173;48.066;20.976;2024-03-23T15:01:44;99304.06;;;16.75;55.83
76124;BME280;65173;48.066;20.976;2024-03-23T15:04:46;99298.22;;;16.62;56.42
76124;BME280;65173;48.066;20.976;2024-03-23T15:07:47;99304.41;;;16.70;56.07
76124;BME280;65173;48.066;20.976;2024-03-23T15:10:49;99304.66;;;16.47;58.28
76124;BME280;65173;48.066;20.976;2024-03-23T15:13:50;99299.28;;;16.47;56.83
76124;BME280;65173;48.066;20.976;2024-03-23T15:16:52;99295.03;;;16.43;57.26
76124;BME280;65173;48.066;20.976;2024-03-23T15:19:54;99303.00;;;16.32;57.19
76124;BME280;65173;48.066;20.976;2024-03-23T15:22:55;99294.53;;;16.23;57.84
76124;BME280;65173;48.066;20.976;2024-03-23T15:26:01;99299.09;;;16.19;57.61
76124;BME280;65173;48.066;20.976;2024-03-23T15:29:03;99294.06;;;16.10;59.04
76124;BME280;65173;48.066;20.976;2024-03-23T15:32:09;99289.72;;;15.98;59.58
76124;BME280;65173;48.066;20.976;2024-03-23T15:35:11;99292.00;;;15.93;60.07
76124;BME280;65173;48.066;20.976;2024-03-23T15:38:13;99284.28;;;15.88;60.75
76124;BME280;65173;48.066;20.976;2024-03-23T15:41:14;99288.00;;;15.73;60.84
76124;BME280;65173;48.066;20.976;2024-03-23T15:44:16;99279.22;;;15.76;59.87
76124;BME280;65173;48.066;20.976;2024-03-23T15:47:17;99287.22;;;15.72;60.65
76124;BME280;65173;48.066;20.976;2024-03-23T15:50:19;99277.97;;;15.66;60.89
76124;BME280;65173;48.066;20.976;2024-03-23T15:53:22;99278.72;;;15.67;60.43
76124;BME280;65173;48.066;20.976;2024-03-23T15:56:24;99288.63;;;15.59;60.88
76124;BME280;65173;48.066;20.976;2024-03-23T15:59:25;99280.78;;;15.40;62.02
76124;BME280;65173;48.066;20.976;2024-03-23T16:02:27;99280.19;;;15.57;61.06
76124;BME280;65173;48.066;20.976;2024-03-23T16:05:31;99280.38;;;15.41;61.74
76124;BME280;65173;48.066;20.976;2024-03-23T16:08:33;99273.91;;;15.46;61.97
76124;BME280;65173;48.066;20.976;2024-03-23T16:11:35;99276.13;;;15.37;62.74
76124;BME280;65173;48.066;20.976;2024-03-23T16:14:36;99272.22;;;15.31;62.91
76124;BME280;65173;48.066;20.976;2024-03-23T16:17:40;99273.00;;;15.31;62.72
76124;BME280;65173;48.066;20.976;2024-03-23T16:20:41;99267.53;;;15.20;63.68
76124;BME280;65173;48.066;20.976;2024-03-23T16:23:43;99269.66;;;15.04;64.56
76124;BME280;65173;48.066;20.976;2024-03-23T16:26:46;99268.38;;;14.94;65.50
76124;BME280;65173;48.066;20.976;2024-03-23T16:29:47;99269.47;;;14.86;65.11
76124;BME280;65173;48.066;20.976;2024-03-23T16:32:49;99261.72;;;14.81;66.20
76124;BME280;65173;48.066;20.976;2024-03-23T16:38:58;99265.91;;;14.79;66.09
76124;BME280;65173;48.066;20.976;2024-03-23T16:41:59;99259.63;;;14.98;64.70
76124;BME280;65173;48.066;20.976;2024-03-23T16:45:02;99254.53;;;14.89;65.21
76124;BME280;65173;48.066;20.976;2024-03-23T16:48:04;99250.88;;;15.04;64.54
76124;BME280;65173;48.066;20.976;2024-03-23T16:51:07;99243.56;;;15.01;64.39
76124;BME280;65173;48.066;20.976;2024-03-23T16:54:09;99241.59;;;14.98;64.37